Time;durP1;ratioP1;P1;durP2;ratioP2;P2;SDS_P1;SDS_P2;PMS_P1;PMS_P2;Temp;Humidity;BMP_temperature;BMP_pressure;BME280_temperature;BME280_humidity;BME280_pressure;Samples;Min_cycle;Max_cycle;Signal;HPM_P1;HPM_P2
2023/09/23 00:02:09;;;;;;;;;;;;;;;5.46;100.00;99141.66;5012419;28;19925;-84
2023/09/23 00:04:35;;;;;;;;;;;;;;;5.36;100.00;99137.56;5013361;28;20028;-93
2023/09/23 00:07:01;;;;;;;;;;;;;;;5.27;100.00;99144.84;5011788;28;19929;-90
2023/09/23 00:09:27;;;;;;;;;;;;;;;5.19;100.00;99151.25;5011913;28;19925;-84
2023/09/23 00:11:52;;;;;;;;;;;;;;;5.30;100.00;99149.16;5012967;28;19918;-87
2023/09/23 00:14:17;;;;;;;;;;;;;;;5.37;100.00;99149.81;5013535;28;19949;-87
2023/09/23 00:16:46;;;;;;;;;;;;;;;5.35;100.00;99149.84;4994833;28;19940;-88
2023/09/23 00:19:12;;;;;;;;;;;;;;;5.43;100.00;99154.88;5013366;28;20036;-87
2023/09/23 00:21:37;;;;;;;;;;;;;;;5.44;100.00;99151.31;5013223;28;19921;-84
2023/09/23 00:24:02;;;;;;;;;;;;;;;5.44;100.00;99156.56;5003974;28;19918;-87
2023/09/23 00:26:28;;;;;;;;;;;;;;;5.50;100.00;99150.28;5013501;28;20254;-84
2023/09/23 00:28:53;;;;;;;;;;;;;;;5.53;100.00;99158.06;5013318;28;19918;-85
2023/09/23 00:31:19;;;;;;;;;;;;;;;5.60;100.00;99164.81;5012156;28;19918;-86
2023/09/23 00:33:44;;;;;;;;;;;;;;;5.61;100.00;99167.41;5013182;28;19921;-87
2023/09/23 00:36:10;;;;;;;;;;;;;;;5.58;100.00;99164.88;5013081;28;19924;-86
2023/09/23 00:38:36;;;;;;;;;;;;;;;5.60;100.00;99176.22;5011905;28;19932;-88
2023/09/23 00:41:03;;;;;;;;;;;;;;;5.58;100.00;99180.66;5011241;28;19921;-85
2023/09/23 00:43:28;;;;;;;;;;;;;;;5.58;100.00;99180.66;5013362;28;19933;-84
2023/09/23 05:24:47;;;;;;;;;;;;;;;5.19;100.00;99401.63;5476392;23;19987;-80
2023/09/23 05:27:14;;;;;;;;;;;;;;;5.27;100.00;99401.44;5031582;28;19928;-81
2023/09/23 05:29:39;;;;;;;;;;;;;;;5.25;100.00;99398.84;5032180;28;19928;-80
2023/09/23 05:32:04;;;;;;;;;;;;;;;5.21;100.00;99402.44;5032084;28;20447;-80
2023/09/23 05:34:30;;;;;;;;;;;;;;;5.25;100.00;99396.22;5014225;28;19951;-81
2023/09/23 05:36:56;;;;;;;;;;;;;;;5.17;100.00;99408.72;5032111;28;19928;-80
2023/09/23 05:39:21;;;;;;;;;;;;;;;5.25;100.00;99419.00;5030742;28;19971;-81
2023/09/23 05:41:47;;;;;;;;;;;;;;;5.27;100.00;99415.41;5032102;28;19917;-81
2023/09/23 05:44:13;;;;;;;;;;;;;;;5.41;100.00;99416.81;5031900;28;19924;-81
2023/09/23 05:46:41;;;;;;;;;;;;;;;5.38;100.00;99437.94;5031150;28;19921;-81
2023/09/23 05:49:10;;;;;;;;;;;;;;;5.42;100.00;99439.56;5032011;28;19924;-81
2023/09/23 05:51:35;;;;;;;;;;;;;;;5.43;100.00;99450.03;5014293;28;19928;-84
2023/09/23 05:54:01;;;;;;;;;;;;;;;5.41;100.00;99456.25;5030618;28;19921;-83
2023/09/23 05:56:26;;;;;;;;;;;;;;;5.43;100.00;99457.91;5014267;28;19917;-81
2023/09/23 05:58:51;;;;;;;;;;;;;;;5.51;100.00;99470.00;5031772;28;19925;-81
2023/09/23 06:01:17;;;;;;;;;;;;;;;5.46;100.00;99475.38;5031702;28;19917;-81
2023/09/23 06:03:42;;;;;;;;;;;;;;;5.48;100.00;99477.97;5031718;28;20253;-81
2023/09/23 06:06:08;;;;;;;;;;;;;;;5.49;100.00;99475.28;5031630;28;19925;-83
2023/09/23 06:08:34;;;;;;;;;;;;;;;5.51;100.00;99473.47;5031007;28;19921;-82
2023/09/23 06:11:05;;;;;;;;;;;;;;;5.49;100.00;99482.28;5035461;28;19917;-83
2023/09/23 06:13:30;;;;;;;;;;;;;;;5.50;100.00;99484.88;5034713;28;19917;-83
2023/09/23 06:16:00;;;;;;;;;;;;;;;5.46;100.00;99485.88;5035501;28;19917;-84
2023/09/23 06:18:25;;;;;;;;;;;;;;;5.44;100.00;99495.53;5035724;28;20164;-83
2023/09/23 06:20:56;;;;;;;;;;;;;;;5.41;100.00;99500.91;5035557;28;20351;-81
2023/09/23 06:23:22;;;;;;;;;;;;;;;5.42;100.00;99507.88;5033279;28;19953;-81
2023/09/23 06:25:54;;;;;;;;;;;;;;;5.48;100.00;99512.97;5035231;28;19972;-84
2023/09/23 06:28:19;;;;;;;;;;;;;;;5.40;100.00;99513.16;5035579;28;19917;-89
2023/09/23 06:30:44;;;;;;;;;;;;;;;5.53;100.00;99507.59;5035125;28;19917;-83
2023/09/23 06:33:10;;;;;;;;;;;;;;;5.52;100.00;99514.63;5035439;28;20012;-81
2023/09/23 06:35:35;;;;;;;;;;;;;;;5.42;100.00;99515.75;5035193;28;19921;-84
2023/09/23 06:38:00;;;;;;;;;;;;;;;5.42;100.00;99518.38;5016434;28;19924;-85
2023/09/23 06:40:26;;;;;;;;;;;;;;;5.39;100.00;99519.34;5035220;28;19956;-81
2023/09/23 06:42:51;;;;;;;;;;;;;;;5.47;100.00;99529.63;5035095;28;20000;-80
2023/09/23 06:45:18;;;;;;;;;;;;;;;5.49;100.00;99524.34;5034724;28;19921;-80
2023/09/23 06:47:44;;;;;;;;;;;;;;;5.48;100.00;99534.00;5035015;28;19972;-81
2023/09/23 06:50:10;;;;;;;;;;;;;;;5.54;100.00;99531.22;5034679;28;19917;-80
2023/09/23 06:52:35;;;;;;;;;;;;;;;5.59;100.00;99536.34;5034898;28;20429;-79
2023/09/23 06:55:01;;;;;;;;;;;;;;;5.54;100.00;99540.88;5033465;28;19918;-80
2023/09/23 06:57:26;;;;;;;;;;;;;;;5.60;100.00;99544.19;5034718;28;19925;-82
2023/09/23 06:59:51;;;;;;;;;;;;;;;5.48;100.00;99547.13;5034711;28;19917;-81
2023/09/23 07:02:16;;;;;;;;;;;;;;;5.53;100.00;99553.13;5034611;28;19924;-80
2023/09/23 07:04:42;;;;;;;;;;;;;;;5.50;100.00;99550.56;5034688;28;19917;-81
2023/09/23 07:07:07;;;;;;;;;;;;;;;5.55;100.00;99559.22;5034483;28;19917;-81
2023/09/23 07:09:33;;;;;;;;;;;;;;;5.46;100.00;99556.84;5015469;28;19917;-81
2023/09/23 07:11:58;;;;;;;;;;;;;;;5.42;100.00;99563.91;5034463;28;20299;-80
2023/09/23 07:14:23;;;;;;;;;;;;;;;5.59;100.00;99571.38;5034761;28;19924;-86
2023/09/23 07:32:46;;;;;;;;;;;;;;;5.62;100.00;99591.47;5106108;23;19937;-88
2023/09/23 07:35:11;;;;;;;;;;;;;;;5.56;100.00;99595.09;5015124;28;19922;-86
2023/09/23 07:37:40;;;;;;;;;;;;;;;5.63;100.00;99599.31;5013582;28;19917;-87
2023/09/23 07:40:06;;;;;;;;;;;;;;;5.56;100.00;99603.00;5014297;28;20272;-84
2023/09/23 07:42:31;;;;;;;;;;;;;;;5.58;100.00;99601.19;4996725;28;20414;-87
2023/09/23 07:44:56;;;;;;;;;;;;;;;5.68;100.00;99607.09;5014129;28;19924;-85
2023/09/23 07:47:21;;;;;;;;;;;;;;;5.78;100.00;99618.22;4995330;28;20261;-86
2023/09/23 07:49:47;;;;;;;;;;;;;;;5.72;100.00;99613.97;4996312;28;19918;-84
2023/09/23 07:52:12;;;;;;;;;;;;;;;5.76;100.00;99620.00;4996425;28;19921;-87
2023/09/23 07:54:38;;;;;;;;;;;;;;;5.82;100.00;99627.75;5006384;28;20288;-84
2023/09/23 07:57:05;;;;;;;;;;;;;;;5.81;100.00;99628.66;4995718;28;20185;-85
2023/09/23 07:59:31;;;;;;;;;;;;;;;5.82;100.00;99630.38;5013968;28;19964;-86
2023/09/23 08:01:56;;;;;;;;;;;;;;;5.81;100.00;99633.94;5012551;28;19924;-88
2023/09/23 08:04:21;;;;;;;;;;;;;;;5.85;100.00;99632.06;5013906;28;19971;-83
2023/09/23 08:06:46;;;;;;;;;;;;;;;5.84;100.00;99639.13;5013719;28;19922;-85
2023/09/23 08:09:12;;;;;;;;;;;;;;;5.81;100.00;99637.41;5013641;28;19997;-84
2023/09/23 08:11:37;;;;;;;;;;;;;;;5.91;100.00;99639.81;4996072;28;20368;-85
2023/09/23 08:14:02;;;;;;;;;;;;;;;5.91;100.00;99652.97;4996215;28;20266;-85
2023/09/23 08:16:27;;;;;;;;;;;;;;;5.93;100.00;99643.25;5012359;28;19932;-88
2023/09/23 08:18:53;;;;;;;;;;;;;;;5.95;100.00;99647.59;5013685;28;20012;-85
2023/09/23 08:21:18;;;;;;;;;;;;;;;5.91;100.00;99647.69;5013445;28;19960;-85
2023/09/23 08:23:44;;;;;;;;;;;;;;;5.90;100.00;99649.44;5011236;28;19918;-85
2023/09/23 08:26:10;;;;;;;;;;;;;;;5.83;100.00;99647.88;4995807;28;19945;-85
2023/09/23 08:28:36;;;;;;;;;;;;;;;5.88;100.00;99656.53;4995879;28;20384;-82
2023/09/23 08:31:01;;;;;;;;;;;;;;;5.84;100.00;99660.16;5011622;28;19975;-83
2023/09/23 08:33:27;;;;;;;;;;;;;;;5.97;100.00;99661.59;4995239;28;19968;-83
2023/09/23 08:35:53;;;;;;;;;;;;;;;5.96;100.00;99657.22;4995561;28;19926;-85
2023/09/23 08:38:18;;;;;;;;;;;;;;;6.06;100.00;99664.88;4995422;28;20535;-84
2023/09/23 08:40:46;;;;;;;;;;;;;;;5.96;100.00;99670.38;5013259;28;20435;-83
2023/09/23 08:43:12;;;;;;;;;;;;;;;5.92;100.00;99666.06;4995550;28;19924;-83
2023/09/23 08:45:43;;;;;;;;;;;;;;;6.09;100.00;99676.16;5002217;28;19918;-85
2023/09/23 08:48:08;;;;;;;;;;;;;;;6.11;100.00;99673.50;4995330;28;19949;-84
2023/09/23 08:50:35;;;;;;;;;;;;;;;5.98;100.00;99684.34;4995383;28;20011;-84
2023/09/23 08:53:04;;;;;;;;;;;;;;;6.03;100.00;99683.34;5012539;28;19970;-83
2023/09/23 08:55:30;;;;;;;;;;;;;;;5.98;100.00;99679.09;5013144;28;19956;-83
2023/09/23 08:58:01;;;;;;;;;;;;;;;6.04;100.00;99687.72;5003428;28;19926;-85
2023/09/23 09:00:29;;;;;;;;;;;;;;;6.09;100.00;99691.09;5012069;28;19917;-85
2023/09/23 09:02:54;;;;;;;;;;;;;;;6.11;100.00;99689.28;5012383;28;20036;-87
2023/09/23 09:05:20;;;;;;;;;;;;;;;6.05;100.00;99692.06;5012610;28;20004;-85
2023/09/23 09:07:45;;;;;;;;;;;;;;;6.16;100.00;99695.31;5012767;28;19926;-88
2023/09/23 09:10:11;;;;;;;;;;;;;;;6.17;100.00;99699.66;5012520;28;20375;-84
2023/09/23 09:12:36;;;;;;;;;;;;;;;6.14;100.00;99699.72;5012596;28;20280;-84
2023/09/23 09:15:01;;;;;;;;;;;;;;;6.17;100.00;99702.28;5012548;28;19917;-84
2023/09/23 09:17:27;;;;;;;;;;;;;;;6.14;100.00;99708.50;5011214;28;19917;-84
2023/09/23 09:19:52;;;;;;;;;;;;;;;6.18;100.00;99706.66;5012575;28;19918;-83
2023/09/23 09:22:36;;;;;;;;;;;;;;;6.19;100.00;99708.38;5012433;28;19917;-88
2023/09/23 09:25:02;;;;;;;;;;;;;;;6.21;100.00;99705.69;5012404;28;19953;-84
2023/09/23 09:27:28;;;;;;;;;;;;;;;6.14;100.00;99710.25;5012500;28;19961;-84
2023/09/23 09:29:54;;;;;;;;;;;;;;;6.19;100.00;99705.75;4994661;28;19924;-84
2023/09/23 09:32:23;;;;;;;;;;;;;;;6.24;100.00;99714.38;5011154;28;19921;-83
2023/09/23 09:34:48;;;;;;;;;;;;;;;6.19;100.00;99713.66;5010584;28;19968;-86
2023/09/23 09:40:24;;;;;;;;;;;;;;;6.18;100.00;99714.53;5567641;23;19929;-83
2023/09/23 09:42:57;;;;;;;;;;;;;;;6.16;100.00;99719.00;5032694;28;19939;-82
2023/09/23 09:45:23;;;;;;;;;;;;;;;6.22;100.00;99705.66;5036088;28;20292;-84
2023/09/23 09:47:50;;;;;;;;;;;;;;;6.23;100.00;99704.75;5017132;28;19978;-82
2023/09/23 09:50:15;;;;;;;;;;;;;;;6.25;100.00;99716.09;5035828;28;19921;-84
2023/09/23 09:52:44;;;;;;;;;;;;;;;6.24;100.00;99710.88;5018999;28;20284;-81
2023/09/23 09:55:10;;;;;;;;;;;;;;;6.27;100.00;99710.78;5035379;28;19959;-84
2023/09/23 09:57:35;;;;;;;;;;;;;;;6.34;100.00;99707.09;5035819;28;19971;-85
2023/09/23 10:00:07;;;;;;;;;;;;;;;6.16;100.00;99697.94;5036060;28;19917;-85
2023/09/23 10:02:32;;;;;;;;;;;;;;;6.29;100.00;99699.34;5034603;28;19913;-85
2023/09/23 10:05:01;;;;;;;;;;;;;;;6.30;100.00;99698.44;5035794;28;20368;-85
2023/09/23 10:07:47;;;;;;;;;;;;;;;6.23;100.00;99699.50;5035796;28;19920;-86
2023/09/23 10:10:13;;;;;;;;;;;;;;;6.32;100.00;99709.78;5017430;28;19927;-85
2023/09/23 10:12:47;;;;;;;;;;;;;;;6.39;100.00;99709.63;5017915;28;19917;-86
2023/09/23 10:15:12;;;;;;;;;;;;;;;6.35;100.00;99704.44;5035147;28;20299;-86
2023/09/23 10:17:41;;;;;;;;;;;;;;;6.32;100.00;99712.41;5016691;28;19917;-85
2023/09/23 10:20:15;;;;;;;;;;;;;;;6.32;100.00;99704.50;5035509;28;19917;-87
2023/09/23 10:22:50;;;;;;;;;;;;;;;6.41;100.00;99713.06;5034844;28;19921;-84
2023/09/23 10:25:16;;;;;;;;;;;;;;;6.44;100.00;99711.22;5017520;28;20288;-85
2023/09/23 10:27:56;;;;;;;;;;;;;;;6.54;100.00;99710.06;5018192;28;19925;-87
2023/09/23 10:30:22;;;;;;;;;;;;;;;6.42;100.00;99720.91;5017533;28;20391;-84
2023/09/23 10:32:51;;;;;;;;;;;;;;;6.33;100.00;99719.41;5034448;28;20015;-84
2023/09/23 10:35:22;;;;;;;;;;;;;;;6.46;100.00;99722.56;5035128;28;19992;-88
2023/09/23 10:37:47;;;;;;;;;;;;;;;6.58;100.00;99726.63;5035104;28;19917;-84
2023/09/23 10:40:13;;;;;;;;;;;;;;;6.51;100.00;99736.47;5034949;28;19925;-83
2023/09/23 10:42:40;;;;;;;;;;;;;;;6.48;100.00;99738.34;5035270;28;20358;-85
2023/09/23 10:45:06;;;;;;;;;;;;;;;6.46;100.00;99738.38;5017335;28;20376;-85
2023/09/23 10:47:32;;;;;;;;;;;;;;;6.45;100.00;99735.78;5033728;28;19931;-83
2023/09/23 10:49:57;;;;;;;;;;;;;;;6.46;100.00;99732.22;5017014;28;20394;-84
2023/09/23 10:52:22;;;;;;;;;;;;;;;6.50;100.00;99740.00;5035384;28;19927;-83
2023/09/23 10:54:48;;;;;;;;;;;;;;;6.54;100.00;99744.28;5035264;28;19992;-88
2023/09/23 10:57:13;;;;;;;;;;;;;;;6.43;100.00;99740.19;5017706;28;19927;-84
2023/09/23 10:59:39;;;;;;;;;;;;;;;6.52;100.00;99737.31;5035898;28;20383;-89
2023/09/23 11:02:05;;;;;;;;;;;;;;;6.50;100.00;99745.25;5015686;28;20376;-84
2023/09/23 11:04:31;;;;;;;;;;;;;;;6.52;100.00;99742.59;5017174;28;20197;-84
2023/09/23 11:06:56;;;;;;;;;;;;;;;6.49;100.00;99737.41;5034749;28;19944;-86
2023/09/23 11:09:22;;;;;;;;;;;;;;;6.46;100.00;99732.22;5033926;28;19925;-86
2023/09/23 11:11:47;;;;;;;;;;;;;;;6.48;100.00;99736.56;5017214;28;19917;-89
2023/09/23 11:14:13;;;;;;;;;;;;;;;6.53;100.00;99736.44;5034792;28;19917;-83
2023/09/23 11:16:45;;;;;;;;;;;;;;;6.53;100.00;99739.06;5033672;28;20003;-88
2023/09/23 11:19:10;;;;;;;;;;;;;;;6.53;100.00;99737.28;5016714;28;19963;-84
2023/09/23 11:21:42;;;;;;;;;;;;;;;6.45;100.00;99738.41;5034379;28;20292;-81
2023/09/23 11:24:08;;;;;;;;;;;;;;;6.57;100.00;99745.94;5034161;28;20408;-82
2023/09/23 11:26:35;;;;;;;;;;;;;;;6.55;100.00;99740.72;5034982;28;19961;-87
2023/09/23 11:29:03;;;;;;;;;;;;;;;6.57;100.00;99735.44;5037629;28;19999;-85
2023/09/23 11:31:28;;;;;;;;;;;;;;;6.59;100.00;99738.91;5032699;28;20027;-84
2023/09/23 11:33:53;;;;;;;;;;;;;;;6.53;100.00;99746.97;5033191;28;20011;-84
2023/09/23 11:36:19;;;;;;;;;;;;;;;6.62;100.00;99754.63;5034040;28;19924;-83
2023/09/23 11:38:44;;;;;;;;;;;;;;;6.54;100.00;99752.19;5032119;28;19918;-83
2023/09/23 11:41:09;;;;;;;;;;;;;;;6.55;100.00;99747.78;5016054;28;19925;-84
2023/09/23 11:43:34;;;;;;;;;;;;;;;6.46;100.00;99745.38;5033839;28;19917;-84
2023/09/23 11:46:00;;;;;;;;;;;;;;;6.45;100.00;99746.31;5032738;28;19956;-84
2023/09/23 11:48:25;;;;;;;;;;;;;;;6.45;100.00;99747.16;5033897;28;19921;-86
2023/09/23 11:50:50;;;;;;;;;;;;;;;6.39;100.00;99746.47;5015945;28;20383;-85
2023/09/23 11:53:15;;;;;;;;;;;;;;;6.39;100.00;99741.19;5015908;28;19923;-85
2023/09/23 11:55:42;;;;;;;;;;;;;;;6.53;100.00;99746.97;5033773;28;19917;-86
2023/09/23 11:58:08;;;;;;;;;;;;;;;6.40;100.00;99748.16;5016060;28;19921;-85
2023/09/23 12:00:34;;;;;;;;;;;;;;;6.52;100.00;99753.13;5014937;28;19971;-84
2023/09/23 12:02:59;;;;;;;;;;;;;;;6.63;100.00;99764.22;5016294;28;20319;-85
2023/09/23 12:05:28;;;;;;;;;;;;;;;6.57;100.00;99753.84;5033663;28;19917;-89
2023/09/23 12:08:22;;;;;;;;;;;;;;;6.63;100.00;99766.00;5014801;28;19921;-85
2023/09/23 12:13:24;;;;;;;;;;;;;;;6.54;100.00;99767.09;5064561;23;19929;-84
2023/09/23 12:15:49;;;;;;;;;;;;;;;6.48;100.00;99762.88;5010623;28;20554;-84
2023/09/23 12:18:15;;;;;;;;;;;;;;;6.56;100.00;99770.56;4995918;28;19937;-86
2023/09/23 12:20:40;;;;;;;;;;;;;;;6.62;100.00;99774.78;5013745;28;19971;-85
2023/09/23 12:23:05;;;;;;;;;;;;;;;6.50;100.00;99771.59;5013421;28;19913;-84
2023/09/23 12:25:30;;;;;;;;;;;;;;;6.60;100.00;99772.19;5013466;28;19975;-84
2023/09/23 12:27:56;;;;;;;;;;;;;;;6.55;100.00;99768.84;4995814;28;19929;-87
2023/09/23 12:30:21;;;;;;;;;;;;;;;6.59;100.00;99772.25;4995644;28;19925;-84
2023/09/23 12:32:46;;;;;;;;;;;;;;;6.50;100.00;99776.84;5012091;28;20318;-85
2023/09/23 12:35:11;;;;;;;;;;;;;;;6.59;100.00;99780.13;5014111;28;19925;-87
2023/09/23 12:37:37;;;;;;;;;;;;;;;6.59;100.00;99781.03;5013989;28;19922;-84
2023/09/23 12:40:04;;;;;;;;;;;;;;;6.56;100.00;99781.09;4995504;28;19992;-86
2023/09/23 12:42:29;;;;;;;;;;;;;;;6.65;100.00;99786.13;5010932;28;19921;-85
2023/09/23 12:44:54;;;;;;;;;;;;;;;6.64;100.00;99781.75;4995537;28;20395;-84
2023/09/23 12:47:20;;;;;;;;;;;;;;;6.54;100.00;99785.53;4994153;28;19963;-85
2023/09/23 12:49:45;;;;;;;;;;;;;;;6.54;100.00;99782.88;5013006;28;19917;-86
2023/09/23 12:52:11;;;;;;;;;;;;;;;6.65;100.00;99782.63;4992451;28;19925;-86
2023/09/23 12:54:36;;;;;;;;;;;;;;;6.51;100.00;99782.97;4995317;28;19927;-86
2023/09/23 12:57:01;;;;;;;;;;;;;;;6.54;100.00;99790.78;5003404;28;19961;-85
2023/09/23 12:59:28;;;;;;;;;;;;;;;6.55;100.00;99787.25;4995061;28;19921;-85
2023/09/23 13:01:53;;;;;;;;;;;;;;;6.56;100.00;99796.91;4994017;28;19921;-85
2023/09/23 13:04:18;;;;;;;;;;;;;;;6.61;100.00;99799.41;4995158;28;19968;-83
2023/09/23 13:06:44;;;;;;;;;;;;;;;6.58;100.00;99800.34;5011159;28;20287;-86
2023/09/23 13:09:09;;;;;;;;;;;;;;;6.49;100.00;99797.94;5013108;28;20276;-85
2023/09/23 13:11:35;;;;;;;;;;;;;;;6.42;100.00;99806.94;5012195;28;19964;-84
2023/09/23 13:14:00;;;;;;;;;;;;;;;6.45;100.00;99804.22;5013091;28;20265;-84
2023/09/23 13:16:25;;;;;;;;;;;;;;;6.55;100.00;99800.44;5012050;28;19917;-85
2023/09/23 13:18:50;;;;;;;;;;;;;;;6.40;100.00;99801.69;4995868;28;19918;-83
2023/09/23 13:21:16;;;;;;;;;;;;;;;6.40;100.00;99806.97;5012486;28;19925;-84
2023/09/23 13:23:41;;;;;;;;;;;;;;;6.45;100.00;99809.47;5012440;28;19918;-85
2023/09/23 13:26:06;;;;;;;;;;;;;;;6.35;100.00;99809.72;5012441;28;19921;-83
2023/09/23 13:28:32;;;;;;;;;;;;;;;6.48;100.00;99809.41;5012396;28;19924;-86
2023/09/23 13:30:57;;;;;;;;;;;;;;;6.44;100.00;99813.00;5011046;28;19928;-84
2023/09/23 13:33:24;;;;;;;;;;;;;;;6.59;100.00;99807.34;5012284;28;19921;-84
2023/09/23 13:35:50;;;;;;;;;;;;;;;6.61;100.00;99818.69;5012284;28;20352;-85
2023/09/23 13:38:15;;;;;;;;;;;;;;;6.67;100.00;99815.91;5012379;28;19928;-88
2023/09/23 13:40:44;;;;;;;;;;;;;;;6.64;100.00;99820.41;5012196;28;19928;-85
2023/09/23 13:43:09;;;;;;;;;;;;;;;6.49;100.00;99819.00;5012280;28;19918;-87
2023/09/23 13:45:34;;;;;;;;;;;;;;;6.56;100.00;99823.22;5010892;28;20003;-82
2023/09/23 13:48:00;;;;;;;;;;;;;;;6.52;100.00;99826.84;5012575;28;20004;-88
2023/09/23 13:50:25;;;;;;;;;;;;;;;6.53;100.00;99828.56;5012556;28;19937;-82
2023/09/23 13:52:50;;;;;;;;;;;;;;;6.41;100.00;99829.72;5012171;28;20293;-83
2023/09/23 13:55:16;;;;;;;;;;;;;;;6.48;100.00;99841.00;5012100;28;19929;-84
2023/09/23 13:57:41;;;;;;;;;;;;;;;6.49;100.00;99834.81;5011867;28;20000;-84
2023/09/23 14:00:08;;;;;;;;;;;;;;;6.51;100.00;99838.25;5012121;28;20467;-86
2023/09/23 14:02:33;;;;;;;;;;;;;;;6.56;100.00;99844.28;5010745;28;19918;-82
2023/09/23 14:04:58;;;;;;;;;;;;;;;6.48;100.00;99846.25;5012064;28;19924;-84
2023/09/23 14:07:23;;;;;;;;;;;;;;;6.47;100.00;99841.88;5010771;28;19925;-83
2023/09/23 14:09:49;;;;;;;;;;;;;;;6.61;100.00;99847.66;5011824;28;19917;-85
2023/09/23 14:12:15;;;;;;;;;;;;;;;6.53;100.00;99847.00;5010627;28;19925;-87
2023/09/23 14:14:40;;;;;;;;;;;;;;;6.45;100.00;99848.97;5011965;28;20219;-83
2023/09/23 14:17:05;;;;;;;;;;;;;;;6.46;100.00;99848.03;5008579;28;19917;-86
2023/09/23 14:19:32;;;;;;;;;;;;;;;6.48;100.00;99841.84;5002678;28;19922;-83
2023/09/23 14:21:57;;;;;;;;;;;;;;;6.53;100.00;99839.09;5002508;28;19965;-82
2023/09/23 14:24:23;;;;;;;;;;;;;;;6.57;100.00;99848.63;5011626;28;20032;-82
2023/09/23 14:26:48;;;;;;;;;;;;;;;6.45;100.00;99851.59;5011165;28;20015;-86
2023/09/23 14:29:13;;;;;;;;;;;;;;;6.52;100.00;99847.91;5011836;28;19972;-84
2023/09/23 14:31:38;;;;;;;;;;;;;;;6.47;100.00;99852.41;5013943;28;19928;-83
2023/09/23 14:34:04;;;;;;;;;;;;;;;6.56;100.00;99849.56;5015139;28;19922;-83
2023/09/23 14:36:29;;;;;;;;;;;;;;;6.53;100.00;99849.63;5015495;28;20456;-83
2023/09/23 14:38:54;;;;;;;;;;;;;;;6.54;100.00;99851.34;5015591;28;19971;-83
2023/09/23 14:41:20;;;;;;;;;;;;;;;6.47;100.00;99852.41;4997689;28;20016;-82
2023/09/23 14:43:45;;;;;;;;;;;;;;;6.60;100.00;99860.88;4997738;28;20369;-85
2023/09/23 14:46:10;;;;;;;;;;;;;;;6.57;100.00;99860.94;5012072;28;19925;-87
2023/09/23 14:48:35;;;;;;;;;;;;;;;6.62;100.00;99853.78;4996923;28;19964;-84
2023/09/23 14:51:01;;;;;;;;;;;;;;;6.50;100.00;99860.25;4997553;28;19925;-82
2023/09/23 14:53:26;;;;;;;;;;;;;;;6.53;100.00;99857.53;5013619;28;19918;-82
2023/09/23 14:55:51;;;;;;;;;;;;;;;6.35;100.00;99864.09;5005597;28;19917;-82
2023/09/23 14:58:16;;;;;;;;;;;;;;;6.46;100.00;99863.84;5015172;28;19942;-91
2023/09/23 15:00:42;;;;;;;;;;;;;;;6.69;100.00;99861.50;5013919;28;19918;-83
2023/09/23 15:03:07;;;;;;;;;;;;;;;6.39;100.00;99857.88;5015248;28;19920;-91
2023/09/23 15:05:37;;;;;;;;;;;;;;;6.38;100.00;99864.03;5015069;28;19984;-86
2023/09/23 15:08:02;;;;;;;;;;;;;;;6.36;100.00;99864.06;4997788;28;19956;-87
2023/09/23 15:10:28;;;;;;;;;;;;;;;6.47;100.00;99870.84;5014644;28;19972;-82
2023/09/23 15:12:55;;;;;;;;;;;;;;;6.33;100.00;99863.28;5014798;28;19922;-82
2023/09/23 15:15:20;;;;;;;;;;;;;;;6.30;100.00;99869.50;5014934;28;19972;-82
2023/09/23 15:17:46;;;;;;;;;;;;;;;6.30;100.00;99869.50;5013443;28;19917;-87
2023/09/23 15:20:11;;;;;;;;;;;;;;;6.32;100.00;99874.72;5014979;28;19921;-83
2023/09/23 15:22:37;;;;;;;;;;;;;;;6.41;100.00;99871.00;5014488;28;20364;-84
2023/09/23 15:25:03;;;;;;;;;;;;;;;6.46;100.00;99877.00;4997101;28;19925;-83
2023/09/23 15:27:28;;;;;;;;;;;;;;;6.43;100.00;99882.34;5005233;28;19917;-88
2023/09/23 15:29:53;;;;;;;;;;;;;;;6.45;100.00;99886.66;5014856;28;19928;-83
2023/09/23 15:32:19;;;;;;;;;;;;;;;6.29;100.00;99893.22;5013381;28;19925;-86
2023/09/23 15:34:44;;;;;;;;;;;;;;;6.41;100.00;99887.63;4996909;28;19922;-83
2023/09/23 15:37:09;;;;;;;;;;;;;;;6.46;100.00;99896.31;5013082;28;19917;-82
2023/09/23 15:39:35;;;;;;;;;;;;;;;6.31;100.00;99901.94;5004840;28;19929;-85
2023/09/23 15:42:01;;;;;;;;;;;;;;;6.28;100.00;99902.00;5014080;28;20404;-83
2023/09/23 15:44:26;;;;;;;;;;;;;;;6.27;100.00;99911.66;4996969;28;19961;-82
2023/09/23 15:46:52;;;;;;;;;;;;;;;6.24;100.00;99910.84;5011638;28;20032;-82
2023/09/23 15:49:51;;;;;;;;;;;;;;;6.30;100.00;99913.34;5014073;28;19922;-84
2023/09/23 15:52:17;;;;;;;;;;;;;;;6.34;100.00;99915.88;5012850;28;19922;-83
2023/09/23 15:54:42;;;;;;;;;;;;;;;6.30;100.00;99914.22;4996396;28;19924;-88
2023/09/23 15:57:10;;;;;;;;;;;;;;;6.42;100.00;99915.69;5013976;28;19921;-83
2023/09/23 15:59:36;;;;;;;;;;;;;;;6.38;100.00;99914.03;4996259;28;19928;-84
2023/09/23 16:02:01;;;;;;;;;;;;;;;6.47;100.00;99928.75;5012837;28;19917;-84
2023/09/23 16:04:26;;;;;;;;;;;;;;;6.34;100.00;99928.19;5012557;28;19921;-85
2023/09/23 16:06:52;;;;;;;;;;;;;;;6.27;100.00;99930.09;5013393;28;20008;-83
2023/09/23 16:09:17;;;;;;;;;;;;;;;6.28;100.00;99929.16;5013750;28;20403;-86
2023/09/23 16:11:42;;;;;;;;;;;;;;;6.39;100.00;99930.72;5013483;28;20055;-83
2023/09/23 16:14:09;;;;;;;;;;;;;;;6.44;100.00;99936.72;5013673;28;19917;-87
2023/09/23 16:16:34;;;;;;;;;;;;;;;6.46;100.00;99942.81;5012222;28;20023;-87
2023/09/23 16:18:59;;;;;;;;;;;;;;;6.34;100.00;99950.09;5013470;28;20587;-83
2023/09/23 16:21:25;;;;;;;;;;;;;;;6.33;100.00;99947.50;5012676;28;20097;-86
2023/09/23 16:23:50;;;;;;;;;;;;;;;6.29;100.00;99954.59;5013263;28;19921;-86
2023/09/23 16:29:18;;;;;;;;;;;;;;;6.44;100.00;99956.00;5272965;23;19925;-84
2023/09/23 16:34:46;;;;;;;;;;;;;;;6.37;100.00;99970.22;5215114;23;19932;-84
2023/09/23 16:37:45;;;;;;;;;;;;;;;6.32;100.00;99975.59;5003737;28;20372;-83
2023/09/23 16:40:10;;;;;;;;;;;;;;;6.41;100.00;99976.28;4963008;28;19960;-86
2023/09/23 16:42:36;;;;;;;;;;;;;;;6.42;100.00;99972.75;5003717;28;19956;-86
2023/09/23 16:45:01;;;;;;;;;;;;;;;6.25;100.00;99981.00;5013091;28;20005;-82
2023/09/23 16:47:51;;;;;;;;;;;;;;;6.25;100.00;99984.50;5011880;28;20414;-85
2023/09/23 16:50:17;;;;;;;;;;;;;;;6.23;100.00;99993.34;5013102;28;19918;-85
2023/09/23 16:52:42;;;;;;;;;;;;;;;6.34;100.00;100005.34;5012317;28;19933;-86
2023/09/23 16:55:08;;;;;;;;;;;;;;;6.39;100.00;99999.13;5011042;28;19917;-84
2023/09/23 16:57:33;;;;;;;;;;;;;;;6.32;100.00;100014.22;5012945;28;20383;-82
2023/09/23 16:59:58;;;;;;;;;;;;;;;6.25;100.00;100013.44;5012892;28;19917;-83
2023/09/23 17:02:24;;;;;;;;;;;;;;;6.25;100.00;100013.44;5011892;28;19941;-83
2023/09/23 17:04:49;;;;;;;;;;;;;;;6.26;100.00;100015.19;5012839;28;19960;-85
2023/09/23 17:07:15;;;;;;;;;;;;;;;6.17;100.00;100021.53;5002638;28;19918;-83
2023/09/23 17:09:40;;;;;;;;;;;;;;;6.20;100.00;100022.34;5012715;28;19922;-84
2023/09/23 17:12:06;;;;;;;;;;;;;;;6.09;100.00;100030.47;5011075;28;19921;-82
2023/09/23 17:14:31;;;;;;;;;;;;;;;6.14;100.00;100033.84;5012773;28;19925;-82
2023/09/23 17:16:56;;;;;;;;;;;;;;;6.07;100.00;100034.91;4993654;28;19937;-83
2023/09/23 17:19:22;;;;;;;;;;;;;;;6.17;100.00;100036.44;5012603;28;19972;-82
2023/09/23 17:22:12;;;;;;;;;;;;;;;;;;;;;
2023/09/23 17:24:38;;;;;;;;;;;;;;;6.11;100.00;100041.81;5012636;28;19924;-85
2023/09/23 17:27:04;;;;;;;;;;;;;;;6.14;100.00;100047.00;5012498;28;20351;-87
2023/09/23 17:29:29;;;;;;;;;;;;;;;6.15;100.00;100044.34;4995052;28;19917;-84
2023/09/23 17:31:54;;;;;;;;;;;;;;;6.24;100.00;100047.69;4993449;28;20388;-81
2023/09/23 17:34:20;;;;;;;;;;;;;;;6.20;100.00;100049.53;5012240;28;20381;-82
2023/09/23 17:36:45;;;;;;;;;;;;;;;6.21;100.00;100053.91;5012235;28;19959;-86
2023/09/23 17:39:10;;;;;;;;;;;;;;;6.13;100.00;100051.41;5011527;28;19959;-82
2023/09/23 17:41:37;;;;;;;;;;;;;;;6.09;100.00;100054.16;5012331;28;19945;-83
2023/09/23 17:44:03;;;;;;;;;;;;;;;6.17;100.00;100062.75;5011474;28;19929;-83
2023/09/23 17:46:44;;;;;;;;;;;;;;;;;;;;;
2023/09/23 17:49:10;;;;;;;;;;;;;;;6.18;100.00;100078.50;5012524;28;19917;-88
2023/09/23 17:51:38;;;;;;;;;;;;;;;6.22;100.00;100076.66;5012891;28;20016;-84